createdAt,value
2017-01-13T00:00:18.186Z,974.6
2017-01-13T00:00:39.492Z,974.6
2017-01-13T00:01:00.816Z,974.7
2017-01-13T00:01:22.115Z,974.6
2017-01-13T00:01:43.418Z,974.6
2017-01-13T00:02:04.747Z,974.6
2017-01-13T00:02:26.060Z,974.6
2017-01-13T00:02:47.358Z,974.6
2017-01-13T00:03:08.669Z,974.6
2017-01-13T00:03:29.986Z,974.5
2017-01-13T00:03:51.311Z,974.5
2017-01-13T00:04:12.622Z,974.5
2017-01-13T00:04:33.946Z,974.6
2017-01-13T00:04:55.238Z,974.5
2017-01-13T00:05:16.573Z,974.5
2017-01-13T00:05:37.880Z,974.5
2017-01-13T00:05:59.196Z,974.5
2017-01-13T00:06:20.505Z,974.5
2017-01-13T00:06:41.804Z,974.5
2017-01-13T00:07:03.111Z,974.5
2017-01-13T00:07:24.408Z,974.4
2017-01-13T00:07:45.707Z,974.4
2017-01-13T00:08:07.026Z,974.4
2017-01-13T00:08:28.345Z,974.4
2017-01-13T00:08:49.646Z,974.4
2017-01-13T00:09:10.970Z,974.4
2017-01-13T00:09:32.282Z,974.4
2017-01-13T00:09:53.600Z,974.4
2017-01-13T00:10:14.919Z,974.3
2017-01-13T00:10:36.243Z,974.4
2017-01-13T00:10:57.536Z,974.3
2017-01-13T00:11:18.835Z,974.3
2017-01-13T00:11:40.134Z,974.2
2017-01-13T00:12:01.476Z,974.3
2017-01-13T00:12:22.793Z,974.2
2017-01-13T00:12:44.141Z,974.3
2017-01-13T00:13:05.445Z,974.3
2017-01-13T00:13:26.747Z,974.2
2017-01-13T00:13:48.052Z,974.3
2017-01-13T00:14:09.349Z,974.2
2017-01-13T00:14:30.649Z,974.2
2017-01-13T00:14:51.957Z,974.2
2017-01-13T00:15:13.274Z,974.2
2017-01-13T00:15:34.572Z,974.2
2017-01-13T00:15:55.872Z,974.2
2017-01-13T00:16:17.210Z,974.2
2017-01-13T00:16:38.532Z,974.2
2017-01-13T00:16:59.829Z,974.1
2017-01-13T00:17:21.132Z,974.1
2017-01-13T00:17:42.448Z,974.1
2017-01-13T00:18:03.763Z,974.1
2017-01-13T00:18:25.055Z,974
2017-01-13T00:18:46.353Z,974.1
2017-01-13T00:19:07.699Z,974
2017-01-13T00:19:29.012Z,974
2017-01-13T00:19:50.311Z,974
2017-01-13T00:20:11.626Z,974
2017-01-13T00:20:32.950Z,974
2017-01-13T00:20:54.275Z,974
2017-01-13T00:21:15.576Z,974
2017-01-13T00:21:36.879Z,974
2017-01-13T00:21:58.185Z,973.9
2017-01-13T00:22:19.500Z,973.9
2017-01-13T00:22:40.801Z,973.9
2017-01-13T00:23:02.107Z,973.9
2017-01-13T00:23:23.488Z,973.9
2017-01-13T00:23:44.839Z,973.9
2017-01-13T00:24:06.134Z,973.9
2017-01-13T00:24:27.446Z,973.9
2017-01-13T00:24:48.795Z,973.8
2017-01-13T00:25:10.098Z,973.8
2017-01-13T00:25:31.404Z,973.8
2017-01-13T00:25:52.752Z,973.8
2017-01-13T00:26:14.048Z,973.8
2017-01-13T00:26:35.405Z,973.7
2017-01-13T00:26:56.718Z,973.7
2017-01-13T00:27:18.022Z,973.7
2017-01-13T00:27:39.317Z,973.6
2017-01-13T00:28:00.619Z,973.6
2017-01-13T00:28:21.930Z,973.6
2017-01-13T00:28:43.240Z,973.6
2017-01-13T00:29:04.543Z,973.6
2017-01-13T00:29:25.872Z,973.6
2017-01-13T00:29:47.204Z,973.6
2017-01-13T00:30:08.535Z,973.6
2017-01-13T00:30:29.830Z,973.6
2017-01-13T00:30:51.137Z,973.5
2017-01-13T00:31:12.462Z,973.5
2017-01-13T00:31:33.763Z,973.5
2017-01-13T00:31:55.080Z,973.5
2017-01-13T00:32:16.417Z,973.5
2017-01-13T00:32:37.722Z,973.5
2017-01-13T00:32:59.042Z,973.5
2017-01-13T00:33:20.347Z,973.5
2017-01-13T00:33:41.664Z,973.5
2017-01-13T00:34:02.976Z,973.4
2017-01-13T00:34:24.269Z,973.4
2017-01-13T00:34:45.575Z,973.4
2017-01-13T00:35:06.886Z,973.4
2017-01-13T00:35:28.217Z,973.4
2017-01-13T00:35:49.538Z,973.3
2017-01-13T00:36:10.848Z,973.3
2017-01-13T00:36:32.194Z,973.3
2017-01-13T00:36:53.497Z,973.3
2017-01-13T00:37:14.798Z,973.3
2017-01-13T00:37:36.111Z,973.3
2017-01-13T00:37:57.440Z,973.2
2017-01-13T00:38:18.745Z,973.2
2017-01-13T00:38:40.037Z,973.2
2017-01-13T00:39:01.346Z,973.2
2017-01-13T00:39:22.652Z,973.2
2017-01-13T00:39:43.972Z,973.2
2017-01-13T00:40:05.292Z,973.2
2017-01-13T00:40:26.597Z,973.2
2017-01-13T00:40:47.895Z,973.2
2017-01-13T00:41:09.215Z,973.2
2017-01-13T00:41:30.533Z,973.1
2017-01-13T00:41:51.835Z,973.1
2017-01-13T00:42:13.129Z,973.1
2017-01-13T00:42:34.452Z,973.1
2017-01-13T00:42:55.743Z,973.1
2017-01-13T00:43:17.053Z,973
2017-01-13T00:43:38.368Z,973
2017-01-13T00:43:59.676Z,973
2017-01-13T00:44:20.996Z,972.9
2017-01-13T00:44:42.290Z,972.9
2017-01-13T00:45:03.591Z,972.9
2017-01-13T00:45:24.884Z,972.8
2017-01-13T00:45:46.183Z,972.8
2017-01-13T00:46:07.504Z,972.8
2017-01-13T00:46:28.857Z,972.8
2017-01-13T00:46:50.164Z,972.8
2017-01-13T00:47:11.460Z,972.8
2017-01-13T00:47:32.758Z,972.8
2017-01-13T00:47:54.066Z,972.8
2017-01-13T00:48:15.353Z,972.8
2017-01-13T00:48:36.655Z,972.8
2017-01-13T00:48:57.948Z,972.8
2017-01-13T00:49:19.276Z,972.8
2017-01-13T00:49:40.589Z,972.8
2017-01-13T00:50:01.898Z,972.7
2017-01-13T00:50:23.191Z,972.7
2017-01-13T00:50:44.503Z,972.7
2017-01-13T00:51:05.803Z,972.7
2017-01-13T00:51:27.098Z,972.6
2017-01-13T00:51:48.420Z,972.6
2017-01-13T00:52:09.727Z,972.6
2017-01-13T00:52:31.026Z,972.6
2017-01-13T00:52:52.333Z,972.6
2017-01-13T00:53:13.629Z,972.6
2017-01-13T00:53:34.937Z,972.6
2017-01-13T00:53:56.231Z,972.6
2017-01-13T00:54:17.540Z,972.6
2017-01-13T00:54:38.840Z,972.6
2017-01-13T00:55:00.144Z,972.6
2017-01-13T00:55:21.453Z,972.6
2017-01-13T00:55:42.758Z,972.6
2017-01-13T00:56:04.089Z,972.6
2017-01-13T00:56:25.418Z,972.6
2017-01-13T00:56:46.719Z,972.6
2017-01-13T00:57:08.024Z,972.6
2017-01-13T00:57:29.367Z,972.6
2017-01-13T00:57:50.665Z,972.6
2017-01-13T00:58:11.990Z,972.5
2017-01-13T00:58:33.291Z,972.5
2017-01-13T00:58:54.632Z,972.5
2017-01-13T00:59:15.964Z,972.4
2017-01-13T00:59:37.271Z,972.4
2017-01-13T00:59:58.564Z,972.4
2017-01-13T01:00:19.884Z,972.3
2017-01-13T01:00:41.188Z,972.3
2017-01-13T01:01:02.522Z,972.3
2017-01-13T01:01:23.820Z,972.2
2017-01-13T01:01:45.134Z,972.3
2017-01-13T01:02:06.451Z,972.2
2017-01-13T01:02:27.759Z,972.2
2017-01-13T01:02:49.124Z,972.2
2017-01-13T01:03:10.424Z,972.2
2017-01-13T01:03:31.717Z,972.2
2017-01-13T01:03:53.013Z,972.2
2017-01-13T01:04:14.341Z,972.1
2017-01-13T01:04:35.682Z,972.1
2017-01-13T01:04:57.002Z,972.1
2017-01-13T01:05:18.327Z,972
2017-01-13T01:05:39.640Z,972
2017-01-13T01:06:00.954Z,972
2017-01-13T01:06:22.260Z,971.9
2017-01-13T01:06:43.561Z,971.9
2017-01-13T01:07:04.865Z,971.9
2017-01-13T01:07:26.186Z,971.9
2017-01-13T01:07:47.489Z,971.8
2017-01-13T01:08:08.801Z,971.8
2017-01-13T01:08:30.113Z,971.8
2017-01-13T01:08:51.412Z,971.8
2017-01-13T01:09:12.725Z,971.8
2017-01-13T01:09:34.038Z,971.8
2017-01-13T01:09:55.373Z,971.8
2017-01-13T01:10:16.724Z,971.8
2017-01-13T01:10:38.040Z,971.9
2017-01-13T01:10:59.322Z,971.8
2017-01-13T01:11:20.637Z,971.8
2017-01-13T01:11:41.963Z,971.8
2017-01-13T01:12:03.266Z,971.7
2017-01-13T01:12:24.564Z,971.7
2017-01-13T01:12:45.871Z,971.7
2017-01-13T01:13:07.192Z,971.6
2017-01-13T01:13:28.492Z,971.6
2017-01-13T01:13:49.771Z,971.7
2017-01-13T01:14:11.083Z,971.6
2017-01-13T01:14:32.380Z,971.6
2017-01-13T01:14:53.687Z,971.6
2017-01-13T01:15:14.990Z,971.5
2017-01-13T01:15:36.311Z,971.6
2017-01-13T01:15:57.601Z,971.6
2017-01-13T01:16:18.906Z,971.6
2017-01-13T01:16:40.235Z,971.6
2017-01-13T01:17:01.545Z,971.6
2017-01-13T01:17:22.856Z,971.6
2017-01-13T01:17:44.936Z,971.6
2017-01-13T01:18:06.248Z,971.6
2017-01-13T01:18:27.576Z,971.6
2017-01-13T01:18:48.910Z,971.5
2017-01-13T01:19:10.220Z,971.5
2017-01-13T01:19:31.551Z,971.5
2017-01-13T01:19:52.868Z,971.5
2017-01-13T01:20:14.169Z,971.5
2017-01-13T01:20:35.483Z,971.5
2017-01-13T01:20:56.799Z,971.4
2017-01-13T01:21:18.124Z,971.4
2017-01-13T01:21:39.434Z,971.4
2017-01-13T01:22:00.736Z,971.4
2017-01-13T01:22:22.056Z,971.4
2017-01-13T01:22:43.370Z,971.4
2017-01-13T01:23:04.688Z,971.4
2017-01-13T01:23:26.019Z,971.4
2017-01-13T01:23:47.341Z,971.4
2017-01-13T01:24:08.644Z,971.4
2017-01-13T01:24:29.957Z,971.4
2017-01-13T01:24:51.276Z,971.4
2017-01-13T01:25:12.602Z,971.4
2017-01-13T01:25:33.930Z,971.3
2017-01-13T01:25:55.227Z,971.3
2017-01-13T01:26:16.516Z,971.3
2017-01-13T01:26:37.824Z,971.3
2017-01-13T01:26:59.138Z,971.4
2017-01-13T01:27:20.442Z,971.3
2017-01-13T01:27:41.761Z,971.3
2017-01-13T01:28:03.109Z,971.3
2017-01-13T01:28:24.444Z,971.3
2017-01-13T01:28:45.765Z,971.3
2017-01-13T01:29:07.088Z,971.2
2017-01-13T01:29:28.387Z,971.3
2017-01-13T01:29:49.678Z,971.2
2017-01-13T01:30:11.037Z,971.2
2017-01-13T01:30:32.335Z,971.2
2017-01-13T01:30:53.635Z,971.2
2017-01-13T01:31:14.942Z,971.2
2017-01-13T01:31:36.242Z,971.2
2017-01-13T01:31:57.572Z,971.2
2017-01-13T01:32:18.873Z,971.2
2017-01-13T01:32:40.177Z,971.2
2017-01-13T01:33:01.506Z,971.1
2017-01-13T01:33:22.857Z,971.2
2017-01-13T01:33:44.170Z,971.2
2017-01-13T01:34:05.475Z,971.2
2017-01-13T01:34:26.811Z,971.1
2017-01-13T01:34:48.129Z,971.2
2017-01-13T01:35:09.414Z,971.1
2017-01-13T01:35:30.717Z,971.2
2017-01-13T01:35:52.032Z,971.1
2017-01-13T01:36:13.348Z,971.1
2017-01-13T01:36:34.667Z,971.1
2017-01-13T01:36:56.019Z,971
2017-01-13T01:37:17.338Z,971.1
2017-01-13T01:37:38.652Z,971
2017-01-13T01:37:59.969Z,971
2017-01-13T01:38:21.307Z,970.9
2017-01-13T01:38:42.621Z,970.9
2017-01-13T01:39:03.937Z,970.9
2017-01-13T01:39:25.262Z,970.9
2017-01-13T01:39:46.582Z,970.9
2017-01-13T01:40:07.900Z,970.9
2017-01-13T01:40:29.208Z,970.9
2017-01-13T01:40:50.517Z,970.9
2017-01-13T01:41:11.836Z,970.9
2017-01-13T01:41:33.148Z,970.9
2017-01-13T01:41:54.457Z,970.9
2017-01-13T01:42:15.764Z,970.9
2017-01-13T01:42:37.084Z,970.9
2017-01-13T01:43:09.366Z,970.9
2017-01-13T01:43:30.674Z,970.8
2017-01-13T01:43:51.991Z,970.8
2017-01-13T01:44:13.330Z,970.7
2017-01-13T01:44:34.660Z,970.8
2017-01-13T01:44:55.972Z,970.8
2017-01-13T01:45:17.285Z,970.8
2017-01-13T01:45:38.593Z,970.8
2017-01-13T01:45:59.946Z,970.7
2017-01-13T01:46:21.294Z,970.7
2017-01-13T01:46:42.616Z,970.7
2017-01-13T01:47:03.935Z,970.6
2017-01-13T01:47:25.255Z,970.7
2017-01-13T01:47:46.564Z,970.6
2017-01-13T01:48:07.874Z,970.6
2017-01-13T01:48:29.160Z,970.5
2017-01-13T01:48:50.471Z,970.5
2017-01-13T01:49:11.782Z,970.5
2017-01-13T01:49:33.081Z,970.5
2017-01-13T01:49:54.406Z,970.4
2017-01-13T01:50:15.705Z,970.4
2017-01-13T01:50:37.009Z,970.3
2017-01-13T01:50:58.309Z,970.3
2017-01-13T01:51:19.622Z,970.3
2017-01-13T01:51:40.933Z,970.3
2017-01-13T01:52:02.267Z,970.3
2017-01-13T01:52:23.578Z,970.3
2017-01-13T01:52:44.890Z,970.3
2017-01-13T01:53:06.199Z,970.2
2017-01-13T01:53:27.518Z,970.2
2017-01-13T01:53:48.819Z,970.2
2017-01-13T01:54:10.133Z,970.2
2017-01-13T01:54:31.474Z,970.2
2017-01-13T01:54:52.779Z,970.1
2017-01-13T01:55:14.107Z,970.1
2017-01-13T01:55:35.442Z,970.1
2017-01-13T01:55:56.752Z,970.1
2017-01-13T01:56:18.071Z,970.1
2017-01-13T01:56:39.417Z,970.1
2017-01-13T01:57:00.722Z,970
2017-01-13T01:57:22.050Z,970
2017-01-13T01:57:43.347Z,970.1
2017-01-13T01:58:04.852Z,970
2017-01-13T01:58:26.150Z,970
2017-01-13T01:58:47.438Z,970.1
2017-01-13T01:59:08.741Z,970.1
2017-01-13T01:59:30.054Z,970.1
2017-01-13T01:59:51.354Z,970
2017-01-13T02:00:12.655Z,970
2017-01-13T02:00:34.011Z,970
2017-01-13T02:00:55.342Z,970
2017-01-13T02:01:16.634Z,970
2017-01-13T02:01:37.946Z,970
2017-01-13T02:01:59.269Z,970
2017-01-13T02:02:20.627Z,970
2017-01-13T02:02:41.928Z,970
2017-01-13T02:03:03.254Z,970
2017-01-13T02:03:27.402Z,970
2017-01-13T02:03:48.709Z,970
2017-01-13T02:04:10.023Z,970
2017-01-13T02:04:31.335Z,970
2017-01-13T02:04:52.658Z,970
2017-01-13T02:05:13.988Z,970
2017-01-13T02:05:35.310Z,969.9
2017-01-13T02:05:56.617Z,970
2017-01-13T02:06:17.949Z,969.9
2017-01-13T02:06:39.275Z,969.9
2017-01-13T02:07:00.577Z,969.9
2017-01-13T02:07:21.900Z,969.9
2017-01-13T02:07:43.258Z,969.9
2017-01-13T02:08:04.554Z,969.9
2017-01-13T02:08:25.853Z,969.9
2017-01-13T02:08:47.231Z,969.8
2017-01-13T02:09:08.537Z,969.9
2017-01-13T02:09:29.829Z,969.8
2017-01-13T02:09:51.166Z,969.8
2017-01-13T02:10:12.480Z,969.9
2017-01-13T02:10:33.778Z,969.8
2017-01-13T02:10:55.077Z,969.9
2017-01-13T02:11:16.402Z,969.9
2017-01-13T02:11:37.692Z,969.8
2017-01-13T02:11:59.021Z,969.8
2017-01-13T02:12:20.333Z,969.8
2017-01-13T02:12:41.686Z,969.8
2017-01-13T02:13:03.000Z,969.8
2017-01-13T02:13:24.300Z,969.8
2017-01-13T02:13:45.637Z,969.7
2017-01-13T02:14:06.939Z,969.7
2017-01-13T02:14:28.276Z,969.7
2017-01-13T02:14:49.571Z,969.7
2017-01-13T02:15:10.865Z,969.7
2017-01-13T02:15:32.188Z,969.7
2017-01-13T02:15:53.488Z,969.6
2017-01-13T02:16:14.819Z,969.6
2017-01-13T02:16:36.153Z,969.5
2017-01-13T02:16:57.451Z,969.4
2017-01-13T02:17:18.774Z,969.5
2017-01-13T02:17:40.117Z,969.5
2017-01-13T02:18:01.462Z,969.5
2017-01-13T02:18:22.793Z,969.5
2017-01-13T02:18:44.098Z,969.4
2017-01-13T02:19:05.408Z,969.3
2017-01-13T02:19:26.726Z,969.4
2017-01-13T02:19:48.056Z,969.3
2017-01-13T02:20:09.403Z,969.4
2017-01-13T02:20:30.695Z,969.3
2017-01-13T02:20:52.014Z,969.3
2017-01-13T02:21:13.324Z,969.4
2017-01-13T02:21:34.640Z,969.4
2017-01-13T02:21:55.947Z,969.4
2017-01-13T02:22:17.252Z,969.3
2017-01-13T02:22:38.567Z,969.3
2017-01-13T02:22:59.868Z,969.3
2017-01-13T02:23:21.209Z,969.3
2017-01-13T02:23:42.501Z,969.3
2017-01-13T02:24:03.804Z,969.2
2017-01-13T02:24:25.124Z,969.2
2017-01-13T02:24:46.457Z,969.2
2017-01-13T02:25:07.785Z,969.2
2017-01-13T02:25:29.107Z,969.1
2017-01-13T02:25:50.399Z,969.2
2017-01-13T02:26:11.708Z,969.1
2017-01-13T02:26:33.015Z,969.1
2017-01-13T02:26:54.360Z,969
2017-01-13T02:27:15.669Z,969
2017-01-13T02:27:36.998Z,969.1
2017-01-13T02:27:58.315Z,969
2017-01-13T02:28:19.666Z,968.9
2017-01-13T02:28:40.971Z,969
2017-01-13T02:29:02.275Z,968.9
2017-01-13T02:29:23.739Z,969
2017-01-13T02:29:46.004Z,968.9
2017-01-13T02:30:07.457Z,968.9
2017-01-13T02:30:28.985Z,968.9
2017-01-13T02:30:50.643Z,968.9
2017-01-13T02:31:11.977Z,968.9
2017-01-13T02:31:33.291Z,968.8
2017-01-13T02:31:54.612Z,968.9
2017-01-13T02:32:15.950Z,968.9
2017-01-13T02:32:37.255Z,968.8
2017-01-13T02:32:58.559Z,968.8
2017-01-13T02:33:19.873Z,968.8
2017-01-13T02:33:41.162Z,968.8
2017-01-13T02:34:02.456Z,968.9
2017-01-13T02:34:23.785Z,968.8
2017-01-13T02:34:45.077Z,968.8
2017-01-13T02:35:06.378Z,968.8
2017-01-13T02:35:27.738Z,968.8
2017-01-13T02:35:49.051Z,968.8
2017-01-13T02:36:10.352Z,968.8
2017-01-13T02:36:31.649Z,968.7
2017-01-13T02:36:53.032Z,968.7
2017-01-13T02:37:14.333Z,968.7
2017-01-13T02:37:35.634Z,968.7
2017-01-13T02:37:56.967Z,968.6
2017-01-13T02:38:18.275Z,968.6
2017-01-13T02:38:39.573Z,968.6
2017-01-13T02:39:00.858Z,968.6
2017-01-13T02:39:22.165Z,968.6
2017-01-13T02:39:43.492Z,968.6
2017-01-13T02:40:04.826Z,968.6
2017-01-13T02:40:26.134Z,968.6
2017-01-13T02:40:47.439Z,968.5
2017-01-13T02:41:08.779Z,968.5
2017-01-13T02:41:30.109Z,968.5
2017-01-13T02:41:51.424Z,968.5
2017-01-13T02:42:12.740Z,968.5
2017-01-13T02:42:34.066Z,968.5
2017-01-13T02:42:55.380Z,968.4
2017-01-13T02:43:16.665Z,968.5
2017-01-13T02:43:37.990Z,968.5
2017-01-13T02:43:59.299Z,968.4
2017-01-13T02:44:20.602Z,968.4
2017-01-13T02:44:41.909Z,968.3
2017-01-13T02:45:03.216Z,968.3
2017-01-13T02:45:24.520Z,968.2
2017-01-13T02:45:45.841Z,968.2
2017-01-13T02:46:07.141Z,968.2
2017-01-13T02:46:28.468Z,968.2
2017-01-13T02:46:49.778Z,968.2
2017-01-13T02:47:11.101Z,968.1
2017-01-13T02:47:32.441Z,968.2
2017-01-13T02:47:53.748Z,968.2
2017-01-13T02:48:15.060Z,968.2
2017-01-13T02:48:36.359Z,968.1
2017-01-13T02:48:57.676Z,968
2017-01-13T02:49:18.979Z,968
2017-01-13T02:49:40.282Z,968.1
2017-01-13T02:50:01.582Z,968
2017-01-13T02:50:23.566Z,968
2017-01-13T02:50:46.377Z,968
2017-01-13T02:51:09.090Z,967.9
2017-01-13T02:51:31.084Z,967.9
2017-01-13T02:51:52.855Z,967.9
2017-01-13T02:52:14.312Z,967.9
2017-01-13T02:52:35.745Z,967.8
2017-01-13T02:52:57.328Z,967.9
2017-01-13T02:53:18.690Z,967.8
2017-01-13T02:53:40.051Z,967.8
2017-01-13T02:54:01.361Z,967.8
2017-01-13T02:54:22.664Z,967.8
2017-01-13T02:54:43.958Z,967.7
2017-01-13T02:55:05.270Z,967.8
2017-01-13T02:55:26.627Z,967.9
2017-01-13T02:55:47.945Z,967.8
2017-01-13T02:56:09.260Z,967.9
2017-01-13T02:56:30.564Z,967.9
2017-01-13T02:56:51.863Z,967.9
2017-01-13T02:57:13.179Z,967.9
2017-01-13T02:57:34.521Z,967.9
2017-01-13T02:57:55.828Z,967.8
2017-01-13T02:58:17.148Z,967.9
2017-01-13T02:58:38.449Z,967.9
2017-01-13T02:58:59.748Z,967.9
2017-01-13T02:59:21.078Z,968
2017-01-13T02:59:42.367Z,967.9
2017-01-13T03:00:03.701Z,968
2017-01-13T03:00:25.033Z,968
2017-01-13T03:00:46.350Z,968
2017-01-13T03:01:07.656Z,968
2017-01-13T03:01:28.971Z,968
2017-01-13T03:01:50.307Z,968
2017-01-13T03:02:11.625Z,968
2017-01-13T03:02:32.931Z,968
2017-01-13T03:02:54.236Z,967.9
2017-01-13T03:03:15.537Z,968
2017-01-13T03:03:36.849Z,967.9
2017-01-13T03:03:58.158Z,967.9
2017-01-13T03:04:19.485Z,967.9
2017-01-13T03:04:40.791Z,967.8
2017-01-13T03:05:02.087Z,967.8
2017-01-13T03:05:23.390Z,967.8
2017-01-13T03:05:44.697Z,967.8
2017-01-13T03:06:06.001Z,967.8
2017-01-13T03:06:27.310Z,967.8
2017-01-13T03:06:48.603Z,967.8
2017-01-13T03:07:09.910Z,967.7
2017-01-13T03:07:31.226Z,967.7
2017-01-13T03:07:52.534Z,967.7
2017-01-13T03:08:13.836Z,967.7
2017-01-13T03:08:35.163Z,967.7
2017-01-13T03:08:56.494Z,967.7
2017-01-13T03:09:17.796Z,967.6
2017-01-13T03:09:39.092Z,967.6
2017-01-13T03:10:00.386Z,967.7
2017-01-13T03:10:21.791Z,967.6
2017-01-13T03:10:43.097Z,967.7
2017-01-13T03:11:04.444Z,967.6
2017-01-13T03:11:25.751Z,967.6
2017-01-13T03:11:47.060Z,967.6
2017-01-13T03:12:08.412Z,967.7
2017-01-13T03:12:29.726Z,967.6
2017-01-13T03:12:51.090Z,967.7
2017-01-13T03:13:12.405Z,967.6
2017-01-13T03:13:33.701Z,967.6
2017-01-13T03:13:55.009Z,967.6
2017-01-13T03:14:16.322Z,967.6
2017-01-13T03:14:37.618Z,967.6
2017-01-13T03:14:58.944Z,967.5
2017-01-13T03:15:20.259Z,967.5
2017-01-13T03:15:41.575Z,967.6
2017-01-13T03:16:02.913Z,967.6
2017-01-13T03:16:24.251Z,967.5
2017-01-13T03:16:45.558Z,967.6
2017-01-13T03:17:06.872Z,967.5
2017-01-13T03:17:28.211Z,967.5
2017-01-13T03:17:49.519Z,967.5
2017-01-13T03:18:10.842Z,967.5
2017-01-13T03:18:32.158Z,967.6
2017-01-13T03:18:53.478Z,967.6
2017-01-13T03:19:14.787Z,967.6
2017-01-13T03:19:36.087Z,967.5
2017-01-13T03:19:57.415Z,967.6
2017-01-13T03:20:18.729Z,967.5
2017-01-13T03:20:40.067Z,967.5
2017-01-13T03:21:01.381Z,967.5
2017-01-13T03:21:22.678Z,967.5
2017-01-13T03:21:43.972Z,967.5
2017-01-13T03:22:05.275Z,967.4
2017-01-13T03:22:26.564Z,967.4
2017-01-13T03:22:47.872Z,967.3
2017-01-13T03:23:09.179Z,967.2
2017-01-13T03:23:30.487Z,967.2
2017-01-13T03:23:51.792Z,967.3
2017-01-13T03:24:13.091Z,967.3
2017-01-13T03:24:34.392Z,967.3
2017-01-13T03:24:55.718Z,967.3
2017-01-13T03:25:17.057Z,967.3
2017-01-13T03:25:38.351Z,967.3
2017-01-13T03:25:59.651Z,967.3
2017-01-13T03:26:20.948Z,967.3
2017-01-13T03:26:42.271Z,967.2
2017-01-13T03:27:03.571Z,967.3
2017-01-13T03:27:24.866Z,967.2
2017-01-13T03:27:46.171Z,967.2
2017-01-13T03:28:07.474Z,967.2
2017-01-13T03:28:28.786Z,967.2
2017-01-13T03:28:50.104Z,967.2
2017-01-13T03:29:11.430Z,967.2
2017-01-13T03:29:32.731Z,967.2
2017-01-13T03:29:54.048Z,967.2
2017-01-13T03:30:15.364Z,967.1
2017-01-13T03:30:36.687Z,967.2
2017-01-13T03:30:58.033Z,967.1
2017-01-13T03:31:19.370Z,967.1
2017-01-13T03:31:40.718Z,967.1
2017-01-13T03:32:02.042Z,967.1
2017-01-13T03:32:23.371Z,967.1
2017-01-13T03:32:44.701Z,967
2017-01-13T03:33:06.024Z,967.1
2017-01-13T03:33:27.327Z,967
2017-01-13T03:33:48.671Z,967
2017-01-13T03:34:09.974Z,967.1
2017-01-13T03:34:31.268Z,967.1
2017-01-13T03:34:52.583Z,967
2017-01-13T03:35:13.893Z,967.1
2017-01-13T03:35:35.194Z,967.1
2017-01-13T03:35:56.500Z,967.1
2017-01-13T03:36:17.815Z,967.1
2017-01-13T03:36:39.141Z,967.2
2017-01-13T03:37:00.450Z,967.1
2017-01-13T03:37:21.758Z,967.1
2017-01-13T03:37:43.062Z,967.1
2017-01-13T03:38:04.392Z,967
2017-01-13T03:38:25.713Z,967.1
2017-01-13T03:38:47.023Z,967
2017-01-13T03:39:08.347Z,967
2017-01-13T03:39:29.671Z,967.1
2017-01-13T03:39:50.979Z,967
2017-01-13T03:40:12.280Z,967
2017-01-13T03:40:33.584Z,966.9
2017-01-13T03:40:54.899Z,967
2017-01-13T03:41:16.220Z,967
2017-01-13T03:41:37.535Z,967
2017-01-13T03:41:58.878Z,967
2017-01-13T03:42:20.218Z,966.9
2017-01-13T03:42:41.524Z,966.9
2017-01-13T03:43:02.826Z,966.9
2017-01-13T03:43:24.150Z,966.9
2017-01-13T03:43:45.446Z,966.9
2017-01-13T03:44:06.786Z,967
2017-01-13T03:44:28.088Z,966.9
2017-01-13T03:44:49.393Z,967
2017-01-13T03:45:10.705Z,967
2017-01-13T03:45:32.002Z,967
2017-01-13T03:45:53.310Z,967
2017-01-13T03:46:14.611Z,966.9
2017-01-13T03:46:35.922Z,966.9
2017-01-13T03:46:57.224Z,966.9
2017-01-13T03:47:18.528Z,966.8
2017-01-13T03:47:39.829Z,966.9
2017-01-13T03:48:01.180Z,966.9
2017-01-13T03:48:22.497Z,966.9
2017-01-13T03:48:43.807Z,967
2017-01-13T03:49:05.129Z,966.9
2017-01-13T03:49:26.437Z,966.9
2017-01-13T03:49:47.745Z,967
2017-01-13T03:50:09.142Z,967
2017-01-13T03:50:30.447Z,967
2017-01-13T03:50:51.763Z,966.9
2017-01-13T03:51:13.074Z,966.9
2017-01-13T03:51:34.399Z,966.8
2017-01-13T03:51:55.719Z,966.9
2017-01-13T03:52:17.010Z,966.9
2017-01-13T03:52:38.352Z,967
2017-01-13T03:52:59.659Z,966.9
2017-01-13T03:53:20.984Z,967
2017-01-13T03:53:42.284Z,967
2017-01-13T03:54:03.592Z,967
2017-01-13T03:54:24.904Z,966.9
2017-01-13T03:54:46.188Z,966.9
2017-01-13T03:55:07.521Z,967
2017-01-13T03:55:28.895Z,966.9
2017-01-13T03:55:50.198Z,966.9
2017-01-13T03:56:11.502Z,966.9
2017-01-13T03:56:32.820Z,966.9
2017-01-13T03:56:54.143Z,967
2017-01-13T03:57:15.455Z,967
2017-01-13T03:57:36.812Z,967
2017-01-13T03:57:58.104Z,967
2017-01-13T03:58:19.425Z,967
2017-01-13T03:58:40.737Z,966.9
2017-01-13T03:59:02.038Z,966.9
2017-01-13T03:59:23.350Z,967
2017-01-13T03:59:44.651Z,967
2017-01-13T04:00:05.971Z,967
2017-01-13T04:00:27.285Z,967
2017-01-13T04:00:48.605Z,967
2017-01-13T04:01:09.910Z,966.9
2017-01-13T04:01:31.227Z,966.9
2017-01-13T04:01:52.526Z,967
2017-01-13T04:02:13.833Z,967
2017-01-13T04:02:35.127Z,966.9
2017-01-13T04:02:56.432Z,967
2017-01-13T04:03:17.742Z,967
2017-01-13T04:03:39.047Z,967
2017-01-13T04:04:00.361Z,966.9
2017-01-13T04:04:21.667Z,966.9
2017-01-13T04:04:42.961Z,966.9
2017-01-13T04:05:04.271Z,966.9
2017-01-13T04:05:25.592Z,966.8
2017-01-13T04:05:46.906Z,966.9
2017-01-13T04:06:08.239Z,966.9
2017-01-13T04:06:29.547Z,966.9
2017-01-13T04:06:50.858Z,966.9
2017-01-13T04:07:12.184Z,967
2017-01-13T04:07:33.504Z,966.9
2017-01-13T04:07:54.853Z,967
2017-01-13T04:08:16.168Z,966.9
2017-01-13T04:08:37.510Z,966.8
2017-01-13T04:08:59.334Z,966.8
2017-01-13T04:09:27.617Z,966.8
2017-01-13T04:09:48.957Z,966.8
2017-01-13T04:10:10.279Z,966.8
2017-01-13T04:10:31.607Z,966.8
2017-01-13T04:10:52.914Z,966.8
2017-01-13T04:11:14.225Z,966.8
2017-01-13T04:11:35.525Z,966.7
2017-01-13T04:11:56.827Z,966.8
2017-01-13T04:12:18.148Z,966.8
2017-01-13T04:12:39.451Z,966.8
2017-01-13T04:13:00.752Z,966.8
2017-01-13T04:13:22.065Z,966.8
2017-01-13T04:13:43.382Z,966.9
2017-01-13T04:14:04.687Z,966.8
2017-01-13T04:14:25.988Z,966.8
2017-01-13T04:14:47.290Z,966.8
2017-01-13T04:15:08.614Z,966.8
2017-01-13T04:15:29.926Z,966.8
2017-01-13T04:15:51.261Z,966.8
2017-01-13T04:16:12.560Z,966.9
2017-01-13T04:16:33.865Z,966.8
2017-01-13T04:16:55.185Z,966.8
2017-01-13T04:17:16.500Z,966.8
2017-01-13T04:17:38.516Z,966.9
2017-01-13T04:17:59.827Z,966.9
2017-01-13T04:18:21.196Z,966.9
2017-01-13T04:18:42.497Z,966.9
2017-01-13T04:19:03.816Z,966.9
2017-01-13T04:19:25.112Z,967
2017-01-13T04:19:46.468Z,966.9
2017-01-13T04:20:07.783Z,966.9
2017-01-13T04:20:29.106Z,966.9
2017-01-13T04:20:50.421Z,966.9
2017-01-13T04:21:11.715Z,967
2017-01-13T04:21:33.028Z,966.9
2017-01-13T04:21:54.337Z,966.9
2017-01-13T04:22:15.655Z,967
2017-01-13T04:22:36.991Z,967
2017-01-13T04:22:58.291Z,967
2017-01-13T04:23:19.621Z,967.1
2017-01-13T04:23:40.927Z,967.1
2017-01-13T04:24:02.236Z,967
2017-01-13T04:24:23.543Z,967.1
2017-01-13T04:24:44.840Z,967.1
2017-01-13T04:25:06.153Z,967.1
2017-01-13T04:25:27.850Z,967
2017-01-13T04:25:49.504Z,967.1
2017-01-13T04:26:10.809Z,967.1
2017-01-13T04:26:32.132Z,967.1
2017-01-13T04:26:53.418Z,967.1
2017-01-13T04:28:16.355Z,967
2017-01-13T04:28:37.662Z,967.1
2017-01-13T04:28:58.967Z,967
2017-01-13T04:29:20.271Z,967
2017-01-13T04:29:41.572Z,967
2017-01-13T04:30:02.876Z,967
2017-01-13T04:30:24.175Z,967
2017-01-13T04:30:45.647Z,967
2017-01-13T04:31:06.953Z,967
2017-01-13T04:31:28.250Z,967
2017-01-13T04:31:49.543Z,967
2017-01-13T04:32:10.839Z,967
2017-01-13T04:32:32.125Z,967
2017-01-13T04:32:53.412Z,967
2017-01-13T04:33:14.716Z,967.1
2017-01-13T04:33:36.015Z,967.1
2017-01-13T04:33:57.320Z,967.1
2017-01-13T04:34:18.630Z,967
2017-01-13T04:34:40.162Z,967
2017-01-13T04:35:01.460Z,967
2017-01-13T04:35:22.754Z,967
2017-01-13T04:35:44.059Z,967
2017-01-13T04:36:05.350Z,966.9
2017-01-13T04:36:26.668Z,967
2017-01-13T04:36:47.980Z,967
2017-01-13T04:37:09.300Z,967
2017-01-13T04:37:30.596Z,967.1
2017-01-13T04:37:51.905Z,967
2017-01-13T04:38:13.191Z,967
2017-01-13T04:38:34.482Z,966.9
2017-01-13T04:38:55.782Z,966.9
2017-01-13T04:39:17.091Z,966.9